Time;durP1;ratioP1;P1;durP2;ratioP2;P2;SDS_P1;SDS_P2;PMS_P1;PMS_P2;Temp;Humidity;BMP_temperature;BMP_pressure;BME280_temperature;BME280_humidity;BME280_pressure;Samples;Min_cycle;Max_cycle;Signal;HPM_P1;HPM_P2
2023/08/02 00:02:06;;;;;;;9.57;5.63;;;15.40;99.90;;;;;;5114562;27;20076;-41
2023/08/02 00:04:32;;;;;;;11.02;5.68;;;15.50;99.90;;;;;;5096803;28;20070;-41
2023/08/02 00:06:58;;;;;;;12.93;6.57;;;15.40;99.90;;;;;;5115373;27;20477;-42
2023/08/02 00:09:23;;;;;;;11.20;5.93;;;15.40;99.90;;;;;;5105892;27;20066;-43
2023/08/02 00:11:51;;;;;;;13.02;6.05;;;15.30;99.90;;;;;;5127209;27;20078;-40
2023/08/02 00:14:16;;;;;;;11.77;6.53;;;15.40;99.90;;;;;;5133779;27;20395;-42
2023/08/02 00:16:42;;;;;;;12.48;6.00;;;15.40;99.90;;;;;;5121033;27;20070;-44
2023/08/02 00:19:08;;;;;;;10.75;6.60;;;15.40;99.90;;;;;;5116938;27;20559;-43
2023/08/02 00:21:33;;;;;;;11.98;6.38;;;15.40;99.90;;;;;;5117469;27;20043;-42
2023/08/02 00:23:59;;;;;;;15.45;8.10;;;15.40;99.90;;;;;;5134660;27;20057;-42
2023/08/02 00:26:25;;;;;;;11.98;7.03;;;15.30;99.90;;;;;;5135690;27;20035;-42
2023/08/02 00:28:50;;;;;;;15.10;7.60;;;15.40;99.90;;;;;;5140032;27;20134;-42
2023/08/02 00:31:16;;;;;;;14.95;8.32;;;15.30;99.90;;;;;;5140452;27;20057;-41
2023/08/02 00:33:42;;;;;;;13.43;8.10;;;15.30;99.90;;;;;;5103551;27;20728;-41
2023/08/02 00:36:08;;;;;;;11.55;8.05;;;15.30;99.90;;;;;;5140331;27;20396;-41
2023/08/02 00:38:34;;;;;;;14.10;8.32;;;15.30;99.90;;;;;;5140164;27;20063;-43
2023/08/02 00:41:06;;;;;;;13.40;8.75;;;15.30;99.90;;;;;;5136695;27;20130;-41
2023/08/02 00:43:47;;;;;;;10.38;9.15;;;15.30;99.90;;;;;;5130739;27;20045;-42
2023/08/02 00:46:17;;;;;;;13.27;10.45;;;15.30;99.90;;;;;;5139563;27;20047;-41
2023/08/02 00:48:45;;;;;;;15.75;9.63;;;15.30;99.90;;;;;;5139164;27;20463;-42
2023/08/02 00:51:13;;;;;;;15.15;9.15;;;15.30;99.90;;;;;;5120204;27;20611;-41
2023/08/02 00:53:39;;;;;;;13.00;9.07;;;15.30;99.90;;;;;;5137401;27;20544;-42
2023/08/02 00:56:05;;;;;;;17.33;9.32;;;15.30;99.90;;;;;;5137798;27;20137;-42
2023/08/02 00:58:32;;;;;;;14.13;9.07;;;15.30;99.90;;;;;;5139367;27;20388;-42
2023/08/02 01:01:08;;;;;;;14.02;9.40;;;15.20;99.90;;;;;;5139608;27;20039;-44
2023/08/02 01:03:39;;;;;;;15.70;9.95;;;15.20;99.90;;;;;;5137700;27;20473;-41
2023/08/02 01:06:37;;;;;;;13.45;9.13;;;15.30;99.90;;;;;;5138606;27;20485;-42
2023/08/02 01:09:19;;;;;;;18.10;8.30;;;15.20;99.90;;;;;;5087794;27;20838;-45
2023/08/02 01:11:53;;;;;;;15.05;8.98;;;15.20;99.90;;;;;;5115028;27;20055;-42
2023/08/02 01:14:20;;;;;;;19.35;9.05;;;15.30;99.90;;;;;;5138090;27;20439;-40
2023/08/02 01:16:49;;;;;;;12.77;8.95;;;15.20;99.90;;;;;;5131789;27;20043;-41
2023/08/02 01:19:20;;;;;;;17.30;8.90;;;15.20;99.90;;;;;;5118961;27;20051;-42
2023/08/02 01:21:46;;;;;;;14.07;9.10;;;15.20;99.90;;;;;;5118969;27;20051;-41
2023/08/02 01:24:12;;;;;;;12.25;8.52;;;15.20;99.90;;;;;;5099264;27;20061;-41
2023/08/02 01:26:42;;;;;;;13.07;8.48;;;15.20;99.90;;;;;;5118312;27;20039;-41
2023/08/02 01:29:14;;;;;;;11.77;8.23;;;15.20;99.90;;;;;;5119073;27;20039;-41
2023/08/02 01:31:42;;;;;;;16.83;8.63;;;15.10;99.90;;;;;;5118493;27;20104;-42
2023/08/02 01:34:09;;;;;;;15.48;8.48;;;15.20;99.90;;;;;;5117472;27;20122;-42
2023/08/02 01:36:34;;;;;;;10.52;7.60;;;15.20;99.90;;;;;;5104512;27;20036;-43
2023/08/02 01:39:00;;;;;;;11.77;8.40;;;15.10;99.90;;;;;;5116695;27;20043;-42
2023/08/02 01:41:26;;;;;;;13.55;8.85;;;15.20;99.90;;;;;;5118475;27;20167;-41
2023/08/02 01:43:51;;;;;;;17.17;8.77;;;15.20;99.90;;;;;;5115981;27;20074;-43
2023/08/02 01:46:17;;;;;;;14.60;8.13;;;15.20;99.90;;;;;;5116298;27;20568;-41
2023/08/02 01:48:43;;;;;;;15.18;7.40;;;15.10;99.90;;;;;;5099366;27;20039;-42
2023/08/02 01:51:08;;;;;;;11.43;7.35;;;15.10;99.90;;;;;;5117176;27;20548;-41
2023/08/02 01:53:34;;;;;;;8.60;6.82;;;15.20;99.90;;;;;;5116462;27;20047;-42
2023/08/02 01:56:00;;;;;;;13.65;6.85;;;15.20;99.90;;;;;;5117383;27;20043;-42
2023/08/02 01:58:25;;;;;;;15.07;7.20;;;15.30;99.90;;;;;;5099325;27;20087;-41
2023/08/02 02:00:51;;;;;;;12.50;6.35;;;15.20;99.90;;;;;;5112000;27;20079;-42
2023/08/02 02:03:16;;;;;;;13.32;5.93;;;15.20;99.90;;;;;;5095366;27;20059;-41
2023/08/02 02:05:54;;;;;;;12.00;6.50;;;15.20;99.90;;;;;;5115084;27;20047;-42
2023/08/02 02:08:20;;;;;;;13.45;6.97;;;15.10;99.90;;;;;;5113310;27;20612;-43
2023/08/02 02:10:50;;;;;;;13.45;7.03;;;15.20;99.90;;;;;;5103871;27;20100;-41
2023/08/02 02:13:20;;;;;;;13.45;6.38;;;15.20;99.90;;;;;;5115316;27;20046;-42
2023/08/02 02:15:46;;;;;;;17.05;6.95;;;15.20;99.90;;;;;;5117002;27;20080;-41
2023/08/02 02:18:12;;;;;;;15.32;6.40;;;15.10;99.90;;;;;;5098940;27;20047;-41
2023/08/02 02:20:37;;;;;;;16.55;6.50;;;15.20;99.90;;;;;;5138017;27;20042;-44
2023/08/02 02:23:03;;;;;;;17.67;6.53;;;15.10;99.90;;;;;;5136363;27;20435;-42
2023/08/02 02:25:29;;;;;;;19.40;6.45;;;15.10;99.90;;;;;;5133398;27;20047;-41
2023/08/02 02:27:54;;;;;;;19.40;7.57;;;15.20;99.90;;;;;;5114108;27;20512;-42
2023/08/02 02:30:20;;;;;;;15.77;6.55;;;15.10;99.90;;;;;;5138377;27;20050;-42
2023/08/02 02:32:46;;;;;;;18.73;7.47;;;15.20;99.90;;;;;;5136554;27;20053;-42
2023/08/02 02:35:14;;;;;;;13.27;6.88;;;15.20;99.90;;;;;;5136768;27;20391;-41
2023/08/02 02:37:41;;;;;;;14.30;7.00;;;15.10;99.90;;;;;;5137379;27;20039;-43
2023/08/02 02:40:08;;;;;;;18.45;6.82;;;15.20;99.90;;;;;;5119243;27;20054;-41
2023/08/02 02:42:34;;;;;;;15.60;6.80;;;15.20;99.90;;;;;;5118770;27;20150;-42
2023/08/02 02:45:00;;;;;;;15.32;7.43;;;15.10;99.90;;;;;;5136722;27;20996;-43
2023/08/02 02:47:26;;;;;;;16.63;7.75;;;15.10;99.90;;;;;;5136466;27;20059;-41
2023/08/02 02:49:52;;;;;;;17.15;8.18;;;15.10;99.90;;;;;;5126983;27;20050;-42
2023/08/02 02:52:17;;;;;;;25.13;8.52;;;15.10;99.90;;;;;;5115233;27;20047;-43
2023/08/02 02:54:43;;;;;;;18.40;7.32;;;15.10;99.90;;;;;;5115454;27;20058;-44
2023/08/02 02:57:09;;;;;;;13.13;7.25;;;15.00;99.90;;;;;;5116458;27;20042;-42
2023/08/02 02:59:35;;;;;;;19.45;8.38;;;15.10;99.90;;;;;;5115933;27;20046;-42
2023/08/02 03:02:02;;;;;;;17.30;8.27;;;15.10;99.90;;;;;;5114663;27;20043;-42
2023/08/02 03:04:28;;;;;;;18.13;7.45;;;15.00;99.90;;;;;;5116148;27;20054;-43
2023/08/02 03:06:54;;;;;;;18.80;8.38;;;15.00;99.90;;;;;;5115572;27;20035;-44
2023/08/02 03:09:19;;;;;;;23.00;8.90;;;15.00;99.90;;;;;;5106373;27;20131;-41
2023/08/02 03:11:46;;;;;;;18.88;8.30;;;15.10;99.90;;;;;;5110671;27;20385;-42
2023/08/02 03:14:12;;;;;;;22.17;8.68;;;15.10;99.90;;;;;;5114673;27;20074;-42
2023/08/02 03:16:37;;;;;;;22.58;8.93;;;15.10;99.90;;;;;;5115293;27;20035;-41
2023/08/02 03:19:04;;;;;;;24.48;9.00;;;15.10;99.90;;;;;;5106502;27;20057;-42
2023/08/02 03:21:30;;;;;;;20.73;9.35;;;15.10;99.90;;;;;;5137525;27;20089;-43
2023/08/02 03:23:55;;;;;;;22.98;8.95;;;15.10;99.90;;;;;;5135992;27;20133;-42
2023/08/02 03:26:21;;;;;;;25.83;10.15;;;15.10;99.90;;;;;;5136988;27;20077;-43
2023/08/02 03:28:47;;;;;;;27.48;9.98;;;15.00;99.90;;;;;;5126356;27;20900;-42
2023/08/02 03:31:12;;;;;;;24.98;10.00;;;15.10;99.90;;;;;;5115500;27;20429;-41
2023/08/02 03:33:38;;;;;;;31.17;11.73;;;15.10;99.90;;;;;;5114597;27;20149;-41
2023/08/02 03:36:04;;;;;;;21.15;10.35;;;15.00;99.90;;;;;;5115628;27;20074;-43
2023/08/02 03:38:30;;;;;;;27.23;10.75;;;15.00;99.90;;;;;;5116060;27;20050;-42
2023/08/02 03:40:56;;;;;;;20.90;9.63;;;15.00;99.90;;;;;;5116168;27;20422;-41
2023/08/02 03:43:21;;;;;;;24.77;11.60;;;14.90;99.90;;;;;;5113599;27;20113;-42
2023/08/02 03:45:48;;;;;;;23.77;10.70;;;15.00;99.90;;;;;;5114825;27;20035;-41
2023/08/02 03:48:14;;;;;;;28.60;10.70;;;14.90;99.90;;;;;;5113818;27;20573;-42
2023/08/02 03:50:40;;;;;;;21.05;10.27;;;14.80;99.90;;;;;;5114487;27;20113;-41
2023/08/02 03:53:05;;;;;;;22.50;9.68;;;14.90;99.90;;;;;;5114673;27;20039;-41
2023/08/02 03:55:31;;;;;;;30.58;11.65;;;14.90;99.90;;;;;;5114857;27;20050;-42
2023/08/02 03:57:57;;;;;;;22.52;10.15;;;14.80;99.90;;;;;;5115117;27;20047;-41
2023/08/02 04:00:23;;;;;;;25.98;10.93;;;14.70;99.90;;;;;;5097211;27;20047;-41
2023/08/02 04:02:48;;;;;;;22.92;12.10;;;14.80;99.90;;;;;;5096759;27;20134;-41
2023/08/02 04:05:14;;;;;;;23.23;10.20;;;14.80;99.90;;;;;;5134001;27;20742;-42
2023/08/02 04:07:39;;;;;;;23.10;10.77;;;14.80;99.90;;;;;;5123700;27;20060;-41
2023/08/02 04:10:06;;;;;;;23.30;10.57;;;14.80;99.90;;;;;;5097270;27;20043;-42
2023/08/02 04:12:32;;;;;;;19.90;10.10;;;14.70;99.90;;;;;;5095523;27;20536;-42
2023/08/02 04:14:57;;;;;;;23.17;10.63;;;14.60;99.90;;;;;;5115037;27;20050;-42
2023/08/02 04:17:25;;;;;;;22.02;10.20;;;14.60;99.90;;;;;;5116232;27;20028;-42
2023/08/02 04:19:51;;;;;;;20.75;10.63;;;14.60;99.90;;;;;;5115491;27;20051;-41
2023/08/02 04:22:17;;;;;;;21.40;10.73;;;14.70;99.90;;;;;;5114910;27;20226;-44
2023/08/02 04:24:42;;;;;;;20.67;9.98;;;14.50;99.90;;;;;;5115100;27;20461;-40
2023/08/02 04:27:08;;;;;;;21.90;10.38;;;14.60;99.90;;;;;;5115967;27;20587;-40
2023/08/02 04:29:33;;;;;;;24.23;10.35;;;14.60;99.90;;;;;;5115336;27;20131;-41
2023/08/02 04:31:59;;;;;;;20.52;10.65;;;14.60;99.90;;;;;;5115217;27;20421;-41
2023/08/02 04:34:25;;;;;;;22.00;10.48;;;14.50;99.90;;;;;;5114927;27;20043;-42
2023/08/02 04:36:51;;;;;;;16.27;10.10;;;14.50;99.90;;;;;;5115168;27;20093;-41
2023/08/02 04:39:17;;;;;;;21.52;9.82;;;14.60;99.90;;;;;;5114961;27;20043;-43
2023/08/02 04:41:43;;;;;;;21.63;10.38;;;14.60;99.90;;;;;;5114734;27;20050;-40
2023/08/02 04:44:08;;;;;;;21.15;10.88;;;14.50;99.90;;;;;;5115323;27;20044;-41
2023/08/02 04:46:34;;;;;;;24.50;10.80;;;14.50;99.90;;;;;;5114192;27;20544;-42
2023/08/02 04:48:59;;;;;;;20.10;9.80;;;14.50;99.90;;;;;;5114464;27;20042;-42
2023/08/02 04:51:25;;;;;;;17.90;10.10;;;14.60;99.90;;;;;;5096822;28;20053;-41
2023/08/02 04:53:51;;;;;;;22.83;10.27;;;14.60;99.90;;;;;;5095772;27;20035;-41
2023/08/02 04:56:17;;;;;;;24.30;10.48;;;14.60;99.90;;;;;;5114703;28;20527;-41
2023/08/02 04:58:43;;;;;;;19.95;9.80;;;14.60;99.90;;;;;;5114167;27;20047;-42
2023/08/02 05:01:08;;;;;;;22.67;10.18;;;14.60;99.90;;;;;;5114217;27;20397;-43
2023/08/02 05:03:35;;;;;;;20.10;10.85;;;14.50;99.90;;;;;;5113954;27;20062;-41
2023/08/02 05:06:03;;;;;;;20.80;10.45;;;14.60;99.90;;;;;;5113514;28;20037;-41
2023/08/02 05:08:34;;;;;;;20.10;10.15;;;14.60;99.90;;;;;;5112570;27;20043;-42
2023/08/02 05:10:59;;;;;;;20.75;10.23;;;14.50;99.90;;;;;;5103350;27;20736;-40
2023/08/02 05:13:26;;;;;;;19.85;10.00;;;14.60;99.90;;;;;;5096635;27;20537;-42
2023/08/02 05:15:53;;;;;;;18.23;9.57;;;14.70;99.90;;;;;;5119110;27;20102;-42
2023/08/02 05:18:19;;;;;;;16.90;10.00;;;14.70;99.90;;;;;;5103447;27;20043;-41
2023/08/02 05:20:44;;;;;;;17.63;9.40;;;14.80;99.90;;;;;;5139364;27;20042;-41
2023/08/02 05:23:10;;;;;;;18.58;9.77;;;15.00;99.90;;;;;;5138653;27;20031;-42
2023/08/02 05:25:36;;;;;;;24.92;9.65;;;15.00;99.90;;;;;;5117649;27;20043;-41
2023/08/02 05:28:02;;;;;;;16.52;9.80;;;15.10;99.90;;;;;;5135741;27;20035;-41
2023/08/02 05:30:29;;;;;;;17.05;9.25;;;15.10;99.90;;;;;;5103582;27;20054;-42
2023/08/02 05:32:55;;;;;;;19.80;9.35;;;15.20;99.90;;;;;;5138464;27;20041;-40
2023/08/02 05:35:21;;;;;;;21.25;10.30;;;15.30;99.90;;;;;;5119930;27;20140;-43
2023/08/02 05:37:47;;;;;;;15.63;9.45;;;15.40;99.90;;;;;;5120159;27;20535;-42
2023/08/02 05:40:13;;;;;;;16.92;9.88;;;15.50;99.90;;;;;;5128051;27;20191;-41
2023/08/02 05:42:38;;;;;;;17.75;8.73;;;16.20;99.90;;;;;;5118535;27;20055;-42
2023/08/02 05:45:05;;;;;;;12.20;7.47;;;17.60;99.90;;;;;;5138569;27;20047;-41
2023/08/02 05:47:31;;;;;;;12.40;7.63;;;18.60;99.90;;;;;;5118397;27;20429;-41
2023/08/02 05:49:57;;;;;;;17.70;7.78;;;18.70;99.90;;;;;;5137672;27;20074;-42
2023/08/02 05:52:23;;;;;;;12.60;7.40;;;18.50;99.90;;;;;;5119736;27;20122;-41
2023/08/02 05:54:49;;;;;;;17.73;8.95;;;18.30;99.90;;;;;;5108538;27;20053;-43
2023/08/02 05:57:14;;;;;;;14.32;7.30;;;18.00;99.90;;;;;;5110836;27;20048;-42
2023/08/02 05:59:40;;;;;;;16.05;7.85;;;17.70;99.90;;;;;;5107597;27;20050;-43
2023/08/02 06:02:07;;;;;;;17.98;8.30;;;17.60;99.90;;;;;;5116964;27;20063;-41
2023/08/02 06:04:38;;;;;;;15.02;8.48;;;17.30;99.90;;;;;;5117519;27;20051;-43
2023/08/02 06:07:04;;;;;;;16.50;7.85;;;17.20;99.90;;;;;;5116926;27;20134;-42
2023/08/02 06:09:30;;;;;;;14.73;8.02;;;17.10;99.90;;;;;;5106848;27;20043;-41
2023/08/02 06:11:56;;;;;;;14.93;7.70;;;16.90;99.90;;;;;;5132540;27;20123;-41
2023/08/02 06:14:22;;;;;;;18.38;8.88;;;16.80;99.90;;;;;;5137432;27;20421;-41
2023/08/02 06:16:47;;;;;;;16.83;7.80;;;16.70;99.90;;;;;;5134574;27;20046;-42
2023/08/02 06:19:13;;;;;;;18.65;8.43;;;16.60;99.90;;;;;;5127319;27;20114;-40
2023/08/02 06:21:39;;;;;;;18.08;8.60;;;16.60;99.90;;;;;;5115587;27;20059;-42
2023/08/02 06:24:05;;;;;;;15.10;7.50;;;16.60;99.90;;;;;;5137269;27;20050;-41
2023/08/02 06:26:31;;;;;;;13.60;7.38;;;16.60;99.90;;;;;;5110697;27;20043;-41
2023/08/02 06:28:56;;;;;;;13.93;7.30;;;16.60;99.90;;;;;;5099565;27;20406;-42
2023/08/02 06:31:22;;;;;;;12.10;6.90;;;16.60;99.90;;;;;;5078673;28;20059;-42
2023/08/02 06:33:48;;;;;;;13.65;7.72;;;16.50;99.90;;;;;;5098881;27;20043;-42
2023/08/02 06:36:13;;;;;;;15.02;8.05;;;16.60;99.90;;;;;;5102108;27;20050;-42
2023/08/02 06:38:39;;;;;;;16.15;8.32;;;16.60;99.90;;;;;;5107559;27;20222;-43
2023/08/02 06:41:05;;;;;;;14.48;7.45;;;16.50;99.90;;;;;;5115930;27;20047;-41
2023/08/02 06:43:31;;;;;;;19.63;8.27;;;16.60;99.90;;;;;;5115673;27;20042;-40
2023/08/02 06:45:57;;;;;;;12.52;7.88;;;16.60;99.90;;;;;;5115779;27;20063;-43
2023/08/02 06:48:25;;;;;;;15.55;7.57;;;16.60;99.90;;;;;;5116213;27;20417;-42
2023/08/02 06:50:54;;;;;;;13.07;7.78;;;16.60;99.90;;;;;;5097661;27;20043;-41
2023/08/02 06:53:20;;;;;;;13.88;7.35;;;16.70;99.90;;;;;;5114563;27;20506;-41
2023/08/02 06:55:46;;;;;;;17.05;8.25;;;16.60;99.90;;;;;;5113528;27;20035;-40
2023/08/02 06:58:12;;;;;;;13.60;7.45;;;16.50;99.90;;;;;;5096696;27;20423;-42
2023/08/02 07:00:39;;;;;;;14.15;7.85;;;16.50;99.90;;;;;;5097462;27;20062;-41
2023/08/02 07:03:05;;;;;;;12.23;7.45;;;16.40;99.90;;;;;;5115200;27;20070;-41
2023/08/02 07:05:32;;;;;;;13.55;7.10;;;16.30;99.90;;;;;;5116531;27;20035;-41
2023/08/02 07:07:59;;;;;;;17.05;8.95;;;16.20;99.90;;;;;;5096947;27;20043;-41
2023/08/02 07:10:25;;;;;;;15.23;7.80;;;16.20;99.90;;;;;;5115521;27;20039;-42
2023/08/02 07:12:51;;;;;;;18.55;8.65;;;16.20;99.90;;;;;;5116470;27;20074;-43
2023/08/02 07:15:18;;;;;;;11.77;7.60;;;16.10;99.90;;;;;;5099623;27;21058;-42
2023/08/02 07:17:45;;;;;;;12.48;7.95;;;16.10;99.90;;;;;;5115255;27;20551;-43
2023/08/02 07:20:11;;;;;;;10.95;8.68;;;16.10;99.90;;;;;;5117190;27;20078;-43
2023/08/02 07:22:37;;;;;;;15.00;7.93;;;16.10;99.90;;;;;;5117303;27;20179;-41
2023/08/02 07:25:03;;;;;;;14.60;7.72;;;16.00;99.90;;;;;;5135912;27;20408;-43
2023/08/02 07:27:29;;;;;;;15.88;7.65;;;16.00;99.90;;;;;;5136990;27;20475;-45
2023/08/02 07:29:56;;;;;;;15.38;6.75;;;16.00;99.90;;;;;;5136840;27;20121;-42
2023/08/02 07:32:25;;;;;;;13.70;6.97;;;15.90;99.90;;;;;;5134472;27;20430;-42
2023/08/02 07:34:51;;;;;;;13.20;6.30;;;15.90;99.90;;;;;;5137012;27;20298;-40
2023/08/02 07:37:17;;;;;;;13.45;7.00;;;15.90;99.90;;;;;;5112492;27;20043;-45
2023/08/02 07:39:43;;;;;;;11.95;7.28;;;15.90;99.90;;;;;;5103562;27;20351;-41
2023/08/02 07:42:09;;;;;;;12.13;6.53;;;15.90;99.90;;;;;;5135134;27;20042;-41
2023/08/02 07:44:35;;;;;;;12.55;6.90;;;15.90;99.90;;;;;;5135377;27;20084;-43
2023/08/02 07:47:00;;;;;;;11.55;6.70;;;15.90;99.90;;;;;;5116045;27;20487;-43
2023/08/02 07:49:27;;;;;;;15.35;7.00;;;15.80;99.90;;;;;;5101951;27;20063;-41
2023/08/02 07:51:54;;;;;;;11.30;6.88;;;15.70;99.90;;;;;;5112844;27;20507;-42
2023/08/02 07:54:20;;;;;;;9.38;6.50;;;15.70;99.90;;;;;;5100020;27;20386;-41
2023/08/02 07:56:46;;;;;;;11.85;6.35;;;15.70;99.90;;;;;;5096401;27;20040;-41
2023/08/02 07:59:12;;;;;;;11.65;6.35;;;15.60;99.90;;;;;;5112080;27;20122;-41
2023/08/02 08:01:40;;;;;;;9.77;6.15;;;15.60;99.90;;;;;;5135031;27;20395;-41
2023/08/02 08:04:05;;;;;;;12.25;6.30;;;15.60;99.90;;;;;;5135521;27;20046;-40
2023/08/02 08:06:31;;;;;;;9.68;5.95;;;15.50;99.90;;;;;;5135734;27;20039;-41
2023/08/02 08:08:56;;;;;;;13.85;6.70;;;15.50;99.90;;;;;;5115836;27;20303;-41
2023/08/02 08:11:26;;;;;;;11.95;6.57;;;15.40;99.90;;;;;;5118792;27;20039;-42
2023/08/02 08:13:52;;;;;;;14.90;7.22;;;15.40;99.90;;;;;;5114458;27;20043;-40
2023/08/02 08:16:17;;;;;;;12.68;7.07;;;15.30;99.90;;;;;;5096227;28;20150;-42
2023/08/02 08:18:43;;;;;;;15.07;7.40;;;15.30;99.90;;;;;;5099261;27;20036;-43
2023/08/02 08:21:09;;;;;;;12.88;6.57;;;15.20;99.90;;;;;;5095683;27;20164;-41
2023/08/02 08:23:35;;;;;;;15.38;6.50;;;15.20;99.90;;;;;;5062576;28;20043;-42
2023/08/02 08:26:01;;;;;;;11.48;6.75;;;15.10;99.90;;;;;;5089971;28;20075;-42
2023/08/02 08:28:26;;;;;;;12.65;6.85;;;15.10;99.90;;;;;;5106271;27;20115;-41
2023/08/02 08:31:03;;;;;;;13.27;6.68;;;15.00;99.90;;;;;;5107069;27;20057;-43
2023/08/02 08:33:30;;;;;;;11.82;7.00;;;15.10;99.90;;;;;;5100391;27;20413;-42
2023/08/02 08:35:56;;;;;;;13.90;7.53;;;15.00;99.90;;;;;;5111716;27;20086;-41
2023/08/02 08:38:22;;;;;;;10.98;6.82;;;15.10;99.90;;;;;;5112682;27;20066;-42
2023/08/02 08:40:54;;;;;;;13.23;7.68;;;15.10;99.90;;;;;;5115423;27;20601;-41
2023/08/02 08:43:24;;;;;;;13.30;7.93;;;15.00;99.90;;;;;;5114707;27;20445;-42
2023/08/02 08:45:51;;;;;;;13.27;8.00;;;15.10;99.90;;;;;;5118056;27;20049;-42
2023/08/02 08:48:17;;;;;;;15.40;9.27;;;15.20;99.90;;;;;;5124030;27;20054;-42
2023/08/02 08:50:46;;;;;;;13.07;8.23;;;15.30;99.90;;;;;;5108159;27;20063;-41
2023/08/02 08:53:17;;;;;;;9.63;7.95;;;15.30;99.90;;;;;;5106493;27;20050;-42
2023/08/02 08:55:48;;;;;;;17.02;9.65;;;15.30;99.90;;;;;;5118079;27;20055;-42
2023/08/02 08:58:14;;;;;;;13.35;9.68;;;15.40;99.90;;;;;;5118627;27;20962;-41
2023/08/02 09:00:41;;;;;;;12.63;9.20;;;15.40;99.90;;;;;;5112809;27;20115;-44
2023/08/02 09:03:08;;;;;;;12.93;8.95;;;15.40;99.90;;;;;;5107656;27;20055;-43
2023/08/02 09:05:34;;;;;;;10.43;8.32;;;15.50;99.90;;;;;;5118035;27;20075;-42
2023/08/02 09:08:00;;;;;;;11.75;8.65;;;15.40;99.90;;;;;;5116317;27;20146;-43
2023/08/02 09:10:26;;;;;;;10.43;9.10;;;15.40;99.90;;;;;;5102814;27;20055;-44
2023/08/02 09:12:52;;;;;;;12.98;9.48;;;15.50;99.90;;;;;;5115700;27;20433;-42
2023/08/02 09:15:18;;;;;;;15.25;9.23;;;15.50;99.90;;;;;;5096291;27;20138;-43
2023/08/02 09:17:54;;;;;;;12.18;9.43;;;15.50;99.90;;;;;;5115000;27;20045;-43
2023/08/02 09:20:22;;;;;;;14.73;9.90;;;15.70;99.90;;;;;;5092284;27;20144;-45
2023/08/02 09:22:48;;;;;;;13.70;9.63;;;15.80;99.90;;;;;;5105361;27;20484;-42
2023/08/02 09:25:25;;;;;;;12.50;10.57;;;15.90;99.90;;;;;;5114368;27;20055;-43
2023/08/02 09:27:53;;;;;;;9.73;8.60;;;16.10;99.90;;;;;;5130737;27;20496;-44
2023/08/02 09:30:24;;;;;;;14.07;9.27;;;16.20;99.90;;;;;;5133294;27;20054;-43
2023/08/02 09:33:07;;;;;;;10.13;8.88;;;16.20;99.90;;;;;;5130116;27;20497;-42
2023/08/02 09:35:51;;;;;;;12.13;9.43;;;16.20;99.90;;;;;;5102036;27;20487;-42
2023/08/02 09:38:17;;;;;;;9.80;8.32;;;16.10;99.90;;;;;;5092017;27;20059;-43
2023/08/02 09:40:47;;;;;;;10.85;9.18;;;16.10;99.90;;;;;;5079073;27;20047;-43
2023/08/02 09:43:14;;;;;;;8.05;7.03;;;16.00;99.90;;;;;;5115159;27;20085;-42
2023/08/02 09:45:40;;;;;;;13.30;9.98;;;15.90;99.90;;;;;;5101339;27;20051;-43
2023/08/02 09:48:06;;;;;;;11.60;7.85;;;15.90;99.90;;;;;;5115988;27;20047;-44
2023/08/02 09:50:33;;;;;;;9.75;8.50;;;15.90;99.90;;;;;;5104407;27;20471;-44
2023/08/02 09:53:14;;;;;;;10.80;8.32;;;15.90;99.90;;;;;;5114134;27;20051;-43
2023/08/02 09:55:44;;;;;;;12.35;8.23;;;15.90;99.90;;;;;;5109212;27;20035;-44
2023/08/02 09:58:11;;;;;;;8.68;7.53;;;15.90;99.90;;;;;;5095273;27;20488;-44
2023/08/02 10:00:39;;;;;;;9.40;7.78;;;15.80;99.90;;;;;;5109593;27;20407;-43
2023/08/02 10:03:06;;;;;;;14.25;8.73;;;15.90;99.90;;;;;;5089178;27;20434;-44
2023/08/02 10:05:33;;;;;;;8.48;7.68;;;15.80;99.90;;;;;;5117620;27;20238;-43
2023/08/02 10:07:58;;;;;;;8.52;7.63;;;15.90;99.90;;;;;;5117052;27;20131;-43
2023/08/02 10:10:37;;;;;;;7.53;6.70;;;15.90;99.90;;;;;;5105279;27;20347;-44
2023/08/02 10:13:25;;;;;;;6.45;5.85;;;15.90;99.90;;;;;;5095694;27;20043;-43
2023/08/02 10:15:51;;;;;;;8.00;5.80;;;15.90;99.90;;;;;;5094523;27;20051;-43
2023/08/02 10:18:17;;;;;;;6.80;5.53;;;16.00;99.90;;;;;;5097410;27;20094;-43
2023/08/02 10:20:46;;;;;;;6.07;4.95;;;15.90;99.90;;;;;;5118023;27;20437;-44
2023/08/02 10:23:12;;;;;;;6.55;5.20;;;16.00;99.90;;;;;;5115575;27;20063;-43
2023/08/02 10:25:38;;;;;;;5.78;5.10;;;15.90;99.90;;;;;;5116951;27;20051;-44
2023/08/02 10:28:04;;;;;;;5.97;4.55;;;16.00;99.90;;;;;;5116942;27;20485;-43
2023/08/02 10:30:31;;;;;;;6.03;4.90;;;16.10;99.90;;;;;;5098887;27;20528;-43
2023/08/02 10:33:14;;;;;;;7.43;4.93;;;16.20;99.90;;;;;;5093250;27;20055;-45
2023/08/02 10:35:58;;;;;;;6.13;4.32;;;16.30;99.90;;;;;;5094431;27;20210;-47
2023/08/02 10:38:48;;;;;;;5.00;4.60;;;16.20;99.90;;;;;;5115522;27;20058;-45
2023/08/02 10:41:19;;;;;;;5.88;5.28;;;16.20;99.90;;;;;;5005563;28;20092;-44
2023/08/02 10:43:54;;;;;;;5.95;3.90;;;16.40;99.90;;;;;;5002935;28;20058;-43
2023/08/02 10:46:21;;;;;;;4.63;4.13;;;16.20;99.90;;;;;;5007899;28;20060;-44
2023/08/02 10:48:46;;;;;;;5.40;4.30;;;16.30;99.90;;;;;;5006207;28;20436;-45
2023/08/02 10:51:27;;;;;;;4.18;3.78;;;16.40;99.90;;;;;;5026040;28;20048;-43
2023/08/02 10:54:14;;;;;;;4.35;3.33;;;16.50;99.90;;;;;;5005109;28;20060;-45
2023/08/02 10:56:51;;;;;;;5.50;4.18;;;16.60;99.90;;;;;;5002913;28;20056;-43
2023/08/02 10:59:18;;;;;;;4.38;3.70;;;16.60;99.90;;;;;;4995666;28;20683;-44
2023/08/02 11:02:01;;;;;;;4.60;3.55;;;16.80;99.90;;;;;;5003553;28;20069;-44
2023/08/02 11:04:30;;;;;;;6.63;4.80;;;16.70;99.90;;;;;;5005154;28;20045;-43
2023/08/02 11:07:09;;;;;;;5.20;4.38;;;16.80;99.90;;;;;;5009787;28;20136;-44
2023/08/02 11:09:34;;;;;;;5.53;4.43;;;17.10;99.90;;;;;;4996740;28;20049;-45
2023/08/02 11:12:17;;;;;;;4.25;3.85;;;17.30;99.90;;;;;;4994755;28;20086;-46
2023/08/02 11:14:45;;;;;;;4.57;4.18;;;17.50;99.90;;;;;;4998407;28;20049;-44
2023/08/02 11:17:15;;;;;;;3.97;3.58;;;17.70;99.90;;;;;;5005917;28;20093;-44
2023/08/02 11:19:45;;;;;;;3.75;3.45;;;17.80;99.90;;;;;;5094514;27;20048;-45
2023/08/02 11:22:11;;;;;;;4.20;3.80;;;18.00;99.90;;;;;;5093526;27;20040;-44
2023/08/02 11:24:50;;;;;;;4.50;3.47;;;18.10;99.90;;;;;;5096725;27;20051;-43
2023/08/02 11:27:26;;;;;;;5.07;4.65;;;18.30;99.90;;;;;;5102575;27;20039;-44
2023/08/02 11:30:07;;;;;;;5.57;5.07;;;18.40;99.90;;;;;;5101443;27;20485;-44
2023/08/02 11:32:34;;;;;;;4.80;4.40;;;18.70;99.90;;;;;;5113058;27;20046;-46
2023/08/02 11:35:00;;;;;;;4.60;4.22;;;18.90;99.90;;;;;;5109828;27;20565;-45
2023/08/02 11:37:26;;;;;;;5.13;4.72;;;19.20;99.90;;;;;;5111553;27;20050;-43
2023/08/02 11:39:57;;;;;;;3.63;3.33;;;19.30;99.90;;;;;;5114341;27;20051;-44
2023/08/02 11:42:23;;;;;;;5.03;3.92;;;19.40;99.90;;;;;;5114394;27;20139;-45
2023/08/02 11:44:50;;;;;;;3.63;3.33;;;19.40;99.90;;;;;;5115235;27;20199;-45
2023/08/02 11:47:15;;;;;;;3.90;3.55;;;19.50;99.90;;;;;;5077045;27;20066;-43
2023/08/02 11:49:58;;;;;;;4.60;4.20;;;19.60;99.90;;;;;;5115255;27;20043;-45
2023/08/02 11:52:28;;;;;;;5.70;4.18;;;19.90;99.90;;;;;;5113424;27;20707;-45
2023/08/02 11:54:55;;;;;;;3.95;3.55;;;20.00;99.90;;;;;;5096733;27;20532;-44
2023/08/02 11:57:22;;;;;;;3.60;3.30;;;19.80;99.90;;;;;;5096849;27;20043;-45
2023/08/02 11:59:50;;;;;;;4.13;3.80;;;19.70;99.90;;;;;;5114649;27;20564;-45
2023/08/02 12:02:34;;;;;;;5.05;4.65;;;19.80;99.90;;;;;;5113624;27;20485;-43
2023/08/02 12:05:05;;;;;;;4.85;4.40;;;19.70;99.90;;;;;;5115081;27;20508;-42
2023/08/02 12:07:33;;;;;;;6.03;4.25;;;19.50;99.90;;;;;;5086256;27;20514;-43
2023/08/02 12:10:01;;;;;;;5.05;4.65;;;19.40;99.90;;;;;;5099442;27;20055;-44
2023/08/02 12:12:31;;;;;;;5.90;5.50;;;19.30;99.90;;;;;;5113895;27;20050;-44
2023/08/02 12:14:58;;;;;;;6.47;5.97;;;19.30;99.90;;;;;;5114575;27;20151;-43
2023/08/02 12:17:24;;;;;;;5.75;5.25;;;19.60;99.90;;;;;;5114534;27;20053;-43
2023/08/02 12:19:51;;;;;;;5.18;4.78;;;19.90;99.90;;;;;;5115086;27;20073;-43
2023/08/02 12:22:18;;;;;;;6.43;5.82;;;20.00;99.90;;;;;;5113221;27;20565;-44
2023/08/02 12:24:44;;;;;;;5.82;5.22;;;20.10;99.90;;;;;;5096583;27;20057;-46
2023/08/02 12:27:18;;;;;;;6.28;5.38;;;20.20;99.90;;;;;;5114552;27;20041;-44
2023/08/02 12:29:45;;;;;;;6.05;5.55;;;20.50;99.90;;;;;;5117161;27;20518;-45
2023/08/02 12:32:24;;;;;;;6.22;4.88;;;20.80;99.90;;;;;;5131253;27;20051;-42
2023/08/02 12:34:50;;;;;;;6.03;4.25;;;21.00;99.90;;;;;;5101926;28;20401;-43
2023/08/02 12:37:16;;;;;;;5.78;5.28;;;21.00;99.90;;;;;;5117374;27;20031;-42
2023/08/02 12:39:44;;;;;;;4.85;4.45;;;20.90;99.90;;;;;;5135719;27;20067;-45
2023/08/02 12:42:10;;;;;;;5.30;4.80;;;21.00;99.90;;;;;;5131468;27;20047;-44